Accueil
METAR-TAF:

METAR-TAF

Aéroports :

Aéroport international Kempegowda

Bangalore, Inde

latitude: 13-11-56N, longitude: 077-42-20E, altitude: 915 m

Observation

Le bulletin a été fait il y a 21 minutes, à 15:00 UTC
Vent 4 kt de est/sud-est
Température 23°C
Humidité 36%
Pression 1017 hPa
Visibilité: 6000 m

METAR: VOBL 261500Z 11004KT 6000 NSC 23/07 Q1017 NOSIG

Heure: 20:51 (15:21 UTC)

Prévision

Le bulletin a été fait il y a 1 heure et 21 minutes, à 14:00 UTC
Prévision valable du 26 à 15 UTC au 26 à 24 UTC
Vent 5 kt de nord-est
Visibilité: 6000 m
Evoluant progressivement
du 26 à 22 UTC au 26 à 23 UTC
Vent 2 kt de direction variable
Visibilité: 3000 m
Nuages épars à une hauteur de 1000 ft
brume
Evoluant progressivement
du 26 à 23 UTC au 26 à 24 UTC
Visibilité: 1500 m
Nuages épars à une hauteur de 600 ft
brume

TAF: VOBL 261400Z 2615/2624 05005KT 6000 NSC BECMG 2622/2623 VRB02KT 3000 BR SCT010 BECMG 2623/2624 1500 BR SCT006

Observations et prévisions météorologiques de plus de 4000 aéroports (messages METAR et TAF).

Les stations disponibles sont représentées par des disques jaunes et rouges sur la carte.

Passer la souris dessus pour voir le nom de la station.

Cliquer dessus pour voir les observations et prévisions météorologiques.

Pour changer de carte: cliquez sur les boutons verts avec une croix noire pour zoomer, sur le bouton vert avec un tiret pour effectuer un zoom arrière, ou sur les flèches vertes pour les cartes adjacentes.


METAR-TAF: